首页
METAR-TAF:

METAR-TAF

机场 :

英迪拉·甘地国际机场

新德里, 印度

纬度: 28-34N, 经度: 077-07E, 海拔: 220米

当前天气观测

该预报发布于25分钟前的04:00 UTC
风速3节,风向南转南东
温度 17°C
湿度 77%
气压 1016 hPa
能見度: 1300
轻雾

METAR: VIDP 180400Z 15003KT 1300 R28/P2000 R29/P2000 BR NSC 17/13 Q1016 BECMG 1500 BR

时间: 09:55 (04:25 UTC)

预报

该预报发布于2小时和25分钟前的02:00 UTC
预报有效从18日的 03点(UTC)到 18日的 12点(UTC)
风速节,风向
能見度: 1200
轻雾
成为
从 18日的 05点(UTC)到 18日的 07点(UTC)
风速5节,风向东南
能見度: 2000
成为
从 18日的 08点(UTC)到 18日的 10点(UTC)
能見度: 3500
少量云层高于10000英尺

TAF: VIDP 180200Z 1803/1812 00000KT 1200 BR NSC BECMG 1805/1807 13005KT 2000 FU BECMG 1808/1810 3500 HZ FEW100

超过4000个机场的气象观测和天气预报(METAR&TAF报告)。

可查询的气象台以黄色和红色小点在地图上表示。

将鼠标移到小点上方,可查看气象台名称。

然后点击查看天气观测和预报。

如需切换地图:点击带黑十字的绿色按钮放大地图;点击带横线的绿色按钮缩小地图;或者点击绿色箭头查看邻近地区的地图。


METAR-TAF: